Time;durP1;ratioP1;P1;durP2;ratioP2;P2;SDS_P1;SDS_P2;PMS_P1;PMS_P2;Temp;Humidity;BMP_temperature;BMP_pressure;BME280_temperature;BME280_humidity;BME280_pressure;Samples;Min_cycle;Max_cycle;Signal;HPM_P1;HPM_P2
2021/10/27 00:00:11;;;;;;;6.53;3.67;;;;;;;10.24;100.00;101392.91;4977829;28;20062;-83
2021/10/27 00:02:38;;;;;;;9.00;3.70;;;;;;;10.18;100.00;101401.03;4953531;28;20129;-82
2021/10/27 00:05:06;;;;;;;5.93;3.67;;;;;;;10.15;100.00;101398.53;4959488;28;20051;-85
2021/10/27 00:07:34;;;;;;;12.40;3.72;;;;;;;10.22;100.00;101394.72;4943498;28;20060;-82
2021/10/27 00:10:02;;;;;;;7.55;4.10;;;;;;;10.07;100.00;101409.41;4959221;28;20601;-87
2021/10/27 00:12:30;;;;;;;9.70;3.88;;;;;;;10.09;100.00;101410.19;4961339;28;20091;-80
2021/10/27 00:14:58;;;;;;;9.02;3.25;;;;;;;10.06;100.00;101406.84;4976455;28;20042;-85
2021/10/27 00:17:25;;;;;;;8.63;3.78;;;;;;;10.17;100.00;101411.63;4973824;28;20054;-84
2021/10/27 00:19:53;;;;;;;8.95;3.97;;;;;;;10.20;100.00;101409.72;4956025;28;20058;-81
2021/10/27 00:22:21;;;;;;;7.78;3.92;;;;;;;10.15;100.00;101409.06;4980637;28;20078;-82
2021/10/27 00:24:48;;;;;;;6.88;4.00;;;;;;;9.96;100.00;101414.28;4962978;28;20065;-83
2021/10/27 00:27:16;;;;;;;11.52;4.80;;;;;;;9.85;100.00;101401.59;4997275;28;20258;-85
2021/10/27 00:29:43;;;;;;;8.45;4.10;;;;;;;9.91;100.00;101408.38;4991603;28;20062;-82
2021/10/27 00:32:11;;;;;;;7.47;4.35;;;;;;;9.95;100.00;101407.34;4974315;28;20039;-81
2021/10/27 00:34:39;;;;;;;6.85;3.47;;;;;;;10.15;100.00;101411.69;4943971;28;20045;-81
2021/10/27 00:37:07;;;;;;;10.00;3.78;;;;;;;10.07;100.00;101409.41;4958926;28;20482;-85
2021/10/27 00:39:34;;;;;;;7.60;4.60;;;;;;;10.13;100.00;101405.63;4957208;28;20066;-83
2021/10/27 00:42:03;;;;;;;9.52;3.80;;;;;;;10.05;100.00;101411.25;4961346;28;20053;-81
2021/10/27 00:44:31;;;;;;;9.57;3.92;;;;;;;10.15;100.00;101404.66;4947117;28;20050;-82
2021/10/27 00:47:04;;;;;;;8.00;3.78;;;;;;;10.19;100.00;101407.16;4965512;28;20049;-81
2021/10/27 00:49:34;;;;;;;8.60;4.40;;;;;;;10.02;100.00;101408.75;5001731;28;21385;-80
2021/10/27 00:52:03;;;;;;;6.65;3.80;;;;;;;10.10;100.00;101404.00;4945733;28;20052;-81
2021/10/27 00:54:33;;;;;;;7.45;3.83;;;;;;;10.06;100.00;101399.81;4952609;28;20057;-81
2021/10/27 00:57:02;;;;;;;6.30;4.53;;;;;;;9.96;100.00;101397.66;4961127;28;20047;-82
2021/10/27 00:59:31;;;;;;;8.70;4.50;;;;;;;9.93;100.00;101396.00;4971094;28;20188;-81
2021/10/27 01:01:58;;;;;;;7.03;4.00;;;;;;;9.62;100.00;101394.69;4964850;28;20076;-82
2021/10/27 01:04:26;;;;;;;9.40;4.50;;;;;;;9.62;100.00;101393.84;4964772;28;20042;-81
2021/10/27 01:06:53;;;;;;;8.77;4.30;;;;;;;9.69;100.00;101395.31;4969298;28;20049;-83
2021/10/27 01:09:20;;;;;;;10.38;4.43;;;;;;;9.86;100.00;101394.56;4985666;28;20110;-88
2021/10/27 01:11:48;;;;;;;7.13;4.18;;;;;;;9.97;100.00;101394.94;4999456;28;20119;-88
2021/10/27 01:15:05;;;;;;;7.82;4.20;;;;;;;9.98;100.00;101391.38;4994645;28;20062;-83
2021/10/27 01:17:33;;;;;;;9.40;4.57;;;;;;;9.94;100.00;101388.97;4983164;28;20121;-82
2021/10/27 01:20:01;;;;;;;7.13;4.45;;;;;;;10.00;100.00;101392.19;4961629;28;20049;-84
2021/10/27 01:22:30;;;;;;;7.03;4.22;;;;;;;10.05;100.00;101387.56;4941870;28;20109;-81
2021/10/27 01:24:58;;;;;;;7.93;4.63;;;;;;;9.99;100.00;101386.97;4959936;28;20042;-82
2021/10/27 01:27:27;;;;;;;8.57;3.90;;;;;;;10.02;100.00;101394.75;4958051;28;20141;-83
2021/10/27 01:29:55;;;;;;;9.23;4.65;;;;;;;9.94;100.00;101392.44;4946171;28;20065;-81
2021/10/27 01:32:28;;;;;;;6.72;4.50;;;;;;;10.12;100.00;101391.63;4960714;28;20517;-81
2021/10/27 01:34:55;;;;;;;12.45;4.90;;;;;;;10.12;100.00;101382.88;4972031;28;20045;-82
2021/10/27 01:37:24;;;;;;;6.90;4.47;;;;;;;10.06;100.00;101388.44;4960896;28;20046;-81
2021/10/27 01:39:55;;;;;;;10.75;4.47;;;;;;;10.02;100.00;101387.69;4969271;28;20510;-82
2021/10/27 01:42:23;;;;;;;8.98;4.75;;;;;;;9.94;100.00;101387.19;4958708;28;20057;-85
2021/10/27 01:44:51;;;;;;;8.05;4.30;;;;;;;9.84;100.00;101385.88;4959167;28;20088;-81
2021/10/27 01:47:19;;;;;;;5.68;4.20;;;;;;;9.90;100.00;101385.59;4949228;28;20357;-85
2021/10/27 01:49:47;;;;;;;7.30;4.10;;;;;;;9.95;100.00;101386.28;4965631;28;20097;-78
2021/10/27 01:52:16;;;;;;;14.75;4.57;;;;;;;9.93;100.00;101382.84;4973267;28;20113;-82
2021/10/27 01:54:43;;;;;;;7.22;4.30;;;;;;;9.97;100.00;101387.06;4964139;28;20046;-80
2021/10/27 01:57:11;;;;;;;7.80;4.40;;;;;;;9.95;100.00;101388.91;4969283;28;20054;-83
2021/10/27 01:59:38;;;;;;;8.73;4.40;;;;;;;9.91;100.00;101379.44;4947176;28;20084;-82
2021/10/27 02:02:06;;;;;;;9.10;4.68;;;;;;;10.06;100.00;101383.16;4984276;28;20046;-87
2021/10/27 02:04:34;;;;;;;7.97;4.75;;;;;;;10.05;100.00;101374.44;4958180;28;20084;-81
2021/10/27 02:07:02;;;;;;;7.32;4.32;;;;;;;10.10;100.00;101377.69;4951472;28;20868;-83
2021/10/27 02:09:31;;;;;;;8.85;5.20;;;;;;;9.85;100.00;101377.91;4953343;28;20073;-83
2021/10/27 02:11:59;;;;;;;12.27;5.05;;;;;;;10.02;100.00;101376.34;4984415;28;20489;-82
2021/10/27 02:14:26;;;;;;;10.75;4.15;;;;;;;10.01;100.00;101383.38;4964169;28;20138;-82
2021/10/27 02:16:53;;;;;;;7.57;4.97;;;;;;;10.06;100.00;101384.03;4980642;28;20071;-83
2021/10/27 02:19:21;;;;;;;7.28;4.00;;;;;;;10.13;100.00;101380.22;4961665;28;20056;-85
2021/10/27 02:21:48;;;;;;;8.30;5.20;;;;;;;10.08;100.00;101376.91;4966651;28;20389;-81
2021/10/27 02:24:16;;;;;;;7.22;4.43;;;;;;;10.07;100.00;101376.97;4963877;28;20050;-84
2021/10/27 02:26:44;;;;;;;8.05;5.03;;;;;;;10.15;100.00;101382.75;4965570;28;20119;-80
2021/10/27 02:29:12;;;;;;;10.00;5.18;;;;;;;10.07;100.00;101377.81;4963885;28;20066;-83
2021/10/27 02:31:39;;;;;;;8.48;5.22;;;;;;;10.11;100.00;101379.41;4971803;28;20042;-82
2021/10/27 02:34:08;;;;;;;9.55;5.60;;;;;;;10.10;100.00;101380.34;4948247;28;20137;-84
2021/10/27 02:36:35;;;;;;;10.75;5.40;;;;;;;10.13;100.00;101376.69;4958268;28;20057;-82
2021/10/27 02:39:02;;;;;;;9.80;5.38;;;;;;;10.15;100.00;101380.97;4982110;28;20465;-83
2021/10/27 02:41:30;;;;;;;7.22;5.30;;;;;;;10.13;100.00;101374.06;4972433;28;20124;-82
2021/10/27 02:43:58;;;;;;;11.68;5.47;;;;;;;10.08;100.00;101381.31;4979508;28;20387;-86
2021/10/27 02:46:25;;;;;;;12.82;6.00;;;;;;;10.09;100.00;101376.00;4956264;28;20462;-82
2021/10/27 02:48:52;;;;;;;10.63;5.18;;;;;;;10.21;100.00;101373.72;4984532;28;20054;-83
2021/10/27 02:51:19;;;;;;;12.63;5.35;;;;;;;10.04;100.00;101372.72;4972420;28;20051;-81
2021/10/27 02:53:47;;;;;;;10.10;4.93;;;;;;;10.08;100.00;101369.00;4975246;28;20065;-81
2021/10/27 02:56:15;;;;;;;10.95;5.05;;;;;;;9.96;100.00;101377.47;4963987;28;20152;-82
2021/10/27 02:58:43;;;;;;;8.02;4.97;;;;;;;10.07;100.00;101376.97;4981083;28;20041;-83
2021/10/27 03:01:11;;;;;;;10.45;5.60;;;;;;;10.11;100.00;101373.28;4984969;28;20101;-83
2021/10/27 03:03:38;;;;;;;8.70;5.03;;;;;;;10.14;100.00;101378.44;4968727;28;20504;-83
2021/10/27 03:06:06;;;;;;;7.10;5.25;;;;;;;10.08;100.00;101384.78;4996783;28;20065;-82
2021/10/27 03:08:33;;;;;;;8.27;4.80;;;;;;;10.17;100.00;101385.31;4944905;28;20054;-82
2021/10/27 03:11:00;;;;;;;9.35;4.50;;;;;;;10.19;100.00;101391.38;4945206;28;20050;-82
2021/10/27 03:13:27;;;;;;;7.45;4.80;;;;;;;10.23;100.00;101382.41;4962028;28;20584;-81
2021/10/27 03:15:55;;;;;;;9.35;4.82;;;;;;;10.02;100.00;101389.50;4949460;28;20053;-83
2021/10/27 03:18:25;;;;;;;14.15;5.03;;;;;;;10.20;100.00;101388.66;4960332;28;20060;-81
2021/10/27 03:20:53;;;;;;;10.90;5.30;;;;;;;10.25;100.00;101397.22;4958175;28;20046;-79
2021/10/27 03:23:20;;;;;;;11.85;5.78;;;;;;;10.27;100.00;101391.91;4962494;28;21214;-81
2021/10/27 03:25:47;;;;;;;11.68;5.30;;;;;;;10.24;100.00;101384.13;4958953;28;20050;-80
2021/10/27 03:28:14;;;;;;;13.52;5.93;;;;;;;10.31;100.00;101393.47;4949274;28;20504;-85
2021/10/27 03:30:43;;;;;;;10.50;5.03;;;;;;;10.45;100.00;101393.72;4971681;28;20050;-79
2021/10/27 03:33:10;;;;;;;10.82;5.25;;;;;;;10.35;100.00;101387.97;4959585;28;20046;-83
2021/10/27 03:35:38;;;;;;;7.15;4.03;;;;;;;10.39;100.00;101394.81;4973088;28;20397;-85
2021/10/27 03:38:05;;;;;;;10.00;4.93;;;;;;;10.37;100.00;101386.16;4979428;28;20069;-84
2021/10/27 03:40:38;;;;;;;9.60;4.30;;;;;;;10.34;100.00;101391.53;4942142;28;20415;-87
2021/10/27 03:43:05;;;;;;;11.02;5.53;;;;;;;10.36;100.00;101394.97;4951837;28;20050;-86
2021/10/27 03:45:35;;;;;;;9.27;5.07;;;;;;;10.34;100.00;101388.91;4963301;28;20046;-86
2021/10/27 03:48:03;;;;;;;10.07;4.95;;;;;;;10.51;100.00;101392.56;4956331;28;20043;-83
2021/10/27 03:50:30;;;;;;;14.07;5.85;;;;;;;10.41;100.00;101381.59;4942807;28;20133;-82
2021/10/27 03:52:57;;;;;;;7.82;4.20;;;;;;;10.46;100.00;101386.66;4946791;28;20045;-88
2021/10/27 03:55:25;;;;;;;10.07;4.95;;;;;;;10.48;100.00;101384.78;4962556;28;20043;-84
2021/10/27 03:57:57;;;;;;;9.20;4.60;;;;;;;10.54;100.00;101387.16;4994688;28;20497;-82
2021/10/27 04:00:25;;;;;;;8.20;4.78;;;;;;;10.59;100.00;101383.38;4953272;28;20050;-88
2021/10/27 04:05:46;;;;;;;8.32;4.63;;;;;;;10.36;100.00;101387.09;4915362;29;20039;-71
2021/10/27 04:08:14;;;;;;;9.60;4.85;;;;;;;10.45;100.00;101384.97;4938200;29;20035;-72
2021/10/27 04:10:45;;;;;;;9.48;5.20;;;;;;;10.30;100.00;101389.13;4937595;29;20047;-70
2021/10/27 04:13:17;;;;;;;9.95;5.93;;;;;;;10.28;100.00;101396.25;4921499;29;20062;-71
2021/10/27 04:15:44;;;;;;;9.80;4.97;;;;;;;10.31;100.00;101385.56;4906202;29;20047;-73
2021/10/27 04:18:12;;;;;;;7.32;4.65;;;;;;;10.36;100.00;101391.50;4921840;29;20058;-74
2021/10/27 04:20:40;;;;;;;11.50;5.65;;;;;;;10.37;100.00;101399.31;4918229;29;20068;-71
2021/10/27 04:23:08;;;;;;;9.85;5.03;;;;;;;10.41;100.00;101392.13;4930935;29;20171;-73
2021/10/27 04:25:35;;;;;;;16.25;5.55;;;;;;;10.39;100.00;101397.44;4924728;29;20398;-76
2021/10/27 04:28:03;;;;;;;11.48;5.97;;;;;;;10.37;100.00;101404.56;4938691;29;20043;-76
2021/10/27 04:30:31;;;;;;;8.90;5.22;;;;;;;10.43;100.00;101399.94;4922812;29;20130;-73
2021/10/27 04:32:59;;;;;;;11.55;5.20;;;;;;;10.30;100.00;101404.91;4924483;29;20044;-74
2021/10/27 04:35:26;;;;;;;10.40;5.00;;;;;;;10.42;100.00;101404.38;4925643;29;20058;-72
2021/10/27 04:37:53;;;;;;;10.50;5.53;;;;;;;10.35;100.00;101408.19;4917622;29;20135;-73
2021/10/27 04:40:21;;;;;;;7.72;5.25;;;;;;;10.51;100.00;101411.84;4927835;29;20147;-73
2021/10/27 04:42:48;;;;;;;9.05;5.68;;;;;;;10.46;100.00;101415.63;4931413;29;20435;-74
2021/10/27 04:45:19;;;;;;;8.38;5.57;;;;;;;10.39;100.00;101420.28;4901973;29;20051;-74
2021/10/27 04:47:47;;;;;;;11.20;5.15;;;;;;;10.36;100.00;101417.81;4937042;29;20507;-74
2021/10/27 04:50:14;;;;;;;9.52;5.25;;;;;;;10.42;100.00;101408.78;4915042;29;20063;-74
2021/10/27 04:52:43;;;;;;;9.32;6.00;;;;;;;10.44;100.00;101414.81;4912463;29;20040;-76
2021/10/27 04:55:14;;;;;;;8.73;5.95;;;;;;;10.39;100.00;101413.25;4900975;29;20054;-74
2021/10/27 04:57:41;;;;;;;8.77;6.07;;;;;;;10.51;100.00;101411.84;4918981;29;20052;-72
2021/10/27 05:00:09;;;;;;;11.65;6.63;;;;;;;10.43;100.00;101411.34;4930262;29;20052;-72
2021/10/27 05:02:36;;;;;;;11.35;6.40;;;;;;;10.41;100.00;101415.81;4929853;29;20050;-72
2021/10/27 05:05:03;;;;;;;8.93;5.88;;;;;;;10.25;100.00;101418.28;4915398;29;20050;-73
2021/10/27 05:07:31;;;;;;;11.18;5.55;;;;;;;10.22;100.00;101417.53;4932938;29;20090;-72
2021/10/27 05:09:58;;;;;;;13.38;5.70;;;;;;;10.34;100.00;101411.75;4932707;29;20060;-72
2021/10/27 05:12:26;;;;;;;12.77;6.68;;;;;;;10.42;100.00;101407.00;4921546;29;20047;-72
2021/10/27 05:14:54;;;;;;;12.38;6.30;;;;;;;10.39;100.00;101407.13;4927637;29;21384;-74
2021/10/27 05:17:22;;;;;;;12.00;5.63;;;;;;;10.39;100.00;101399.22;4913961;29;20078;-73
2021/10/27 05:19:49;;;;;;;11.93;5.57;;;;;;;10.37;100.00;101401.09;4928366;29;20459;-73
2021/10/27 05:22:17;;;;;;;13.52;5.93;;;;;;;10.40;100.00;101395.66;4926836;29;20420;-73
2021/10/27 05:24:45;;;;;;;11.82;6.03;;;;;;;10.34;100.00;101393.31;4898025;29;20115;-72
2021/10/27 05:27:12;;;;;;;10.80;6.07;;;;;;;10.33;100.00;101396.91;4922466;29;20817;-73
2021/10/27 05:29:39;;;;;;;10.88;5.45;;;;;;;10.28;100.00;101391.00;4937615;29;20138;-76
2021/10/27 05:32:08;;;;;;;10.70;6.22;;;;;;;10.18;100.00;101400.16;4913881;29;20411;-73
2021/10/27 05:34:37;;;;;;;9.68;6.00;;;;;;;10.32;100.00;101393.41;4930860;29;20056;-73
2021/10/27 05:37:05;;;;;;;10.98;5.82;;;;;;;10.22;100.00;101401.75;4906589;29;20031;-74
2021/10/27 05:39:33;;;;;;;14.05;5.85;;;;;;;10.15;100.00;101406.44;4926156;29;20058;-74
2021/10/27 05:42:01;;;;;;;11.93;5.75;;;;;;;10.24;100.00;101399.91;4910640;29;20452;-73
2021/10/27 05:44:28;;;;;;;10.80;5.68;;;;;;;10.30;100.00;101407.53;4899785;29;20059;-74
2021/10/27 05:46:56;;;;;;;12.38;5.88;;;;;;;10.44;100.00;101406.91;4917393;29;20066;-75
2021/10/27 05:49:40;;;;;;;11.18;5.20;;;;;;;10.43;100.00;101411.34;4916128;29;20052;-74
2021/10/27 05:57:39;;;;;;;12.18;5.82;;;;;;;10.30;100.00;101412.81;4927535;29;20060;-75
2021/10/27 06:00:08;;;;;;;8.18;5.28;;;;;;;10.33;100.00;101421.44;4921642;29;20426;-73
2021/10/27 06:02:36;;;;;;;8.98;5.20;;;;;;;10.45;100.00;101419.19;4893674;29;20062;-74
2021/10/27 06:05:04;;;;;;;8.13;5.10;;;;;;;10.63;100.00;101420.97;4911761;29;20078;-74
2021/10/27 06:07:32;;;;;;;10.57;5.60;;;;;;;10.43;100.00;101415.75;4908339;29;20079;-74
2021/10/27 06:10:00;;;;;;;15.73;5.40;;;;;;;10.56;100.00;101428.28;4913309;29;20040;-73
2021/10/27 06:12:28;;;;;;;12.95;4.75;;;;;;;10.69;100.00;101419.81;4914735;29;20421;-72
2021/10/27 06:14:55;;;;;;;15.40;5.30;;;;;;;10.61;100.00;101423.66;4895891;29;20051;-72
2021/10/27 06:17:23;;;;;;;21.88;6.82;;;;;;;10.77;99.47;101425.59;4931237;29;20426;-75
2021/10/27 06:19:54;;;;;;;10.95;4.65;;;;;;;10.81;99.59;101432.41;4913332;29;20032;-72
2021/10/27 06:22:23;;;;;;;15.38;7.40;;;;;;;10.92;98.86;101440.66;4936290;29;20054;-71
2021/10/27 06:24:53;;;;;;;16.95;5.97;;;;;;;11.03;98.36;101448.91;4910914;29;20056;-72
2021/10/27 06:27:21;;;;;;;7.85;4.82;;;;;;;11.03;97.49;101448.03;4905696;29;20326;-72
2021/10/27 06:29:55;;;;;;;10.07;5.10;;;;;;;11.00;98.20;101458.75;4925708;29;20051;-73
2021/10/27 06:35:00;;;;;;;7.97;4.63;;;;;;;10.95;97.75;101451.06;4925737;29;20075;-72
2021/10/27 06:37:45;;;;;;;7.17;4.73;;;;;;;10.91;98.40;101454.75;4935193;29;20055;-73
2021/10/27 06:48:29;;;;;;;;;;;;;;;11.06;97.63;101461.94;4909359;29;20551;-68
2021/10/27 06:51:09;;;;;;;16.67;5.53;;;;;;;11.09;97.04;101469.69;4925856;29;20370;-66
2021/10/27 06:53:36;;;;;;;8.10;4.45;;;;;;;11.12;97.30;101464.28;4881183;29;20075;-66
2021/10/27 06:56:10;;;;;;;11.80;4.30;;;;;;;11.18;97.25;101465.78;4878510;29;20066;-66
2021/10/27 06:58:45;;;;;;;9.30;4.80;;;;;;;11.27;96.32;101467.97;4889718;29;20053;-66
2021/10/27 07:01:19;;;;;;;10.18;4.20;;;;;;;11.26;96.03;101466.25;4878167;29;20136;-66
2021/10/27 07:04:03;;;;;;;12.45;4.43;;;;;;;11.27;96.21;101472.38;4905372;29;20052;-67
2021/10/27 07:17:20;;;;;;;9.63;4.15;;;;;;;11.51;94.15;101465.06;4907269;29;20238;-67
2021/10/27 07:19:47;;;;;;;8.25;3.85;;;;;;;11.46;94.00;101467.06;4863660;29;20511;-67
2021/10/27 07:22:15;;;;;;;7.68;3.72;;;;;;;11.36;94.80;101474.56;4908739;29;20506;-66
2021/10/27 07:24:44;;;;;;;13.82;4.63;;;;;;;11.35;95.25;101478.16;4886935;29;20059;-66
2021/10/27 07:27:12;;;;;;;9.93;4.38;;;;;;;11.54;93.64;101478.09;4908621;29;20060;-66
2021/10/27 07:29:42;;;;;;;13.35;4.43;;;;;;;11.53;94.27;101479.03;4871483;29;20043;-67
2021/10/27 07:32:12;;;;;;;10.32;3.97;;;;;;;11.63;94.03;101480.28;4890659;29;20048;-66
2021/10/27 07:34:42;;;;;;;10.95;3.78;;;;;;;11.84;93.92;101475.72;4880799;29;20510;-65
2021/10/27 07:40:33;;;;;;;7.88;4.28;;;;;;;12.03;91.69;101470.38;4895686;29;20066;-67
2021/10/27 07:43:06;;;;;;;7.50;3.67;;;;;;;12.13;91.46;101475.09;4890186;29;20044;-66
2021/10/27 07:45:33;;;;;;;10.38;4.60;;;;;;;12.13;91.76;101475.09;4862395;29;20067;-66
2021/10/27 07:48:00;;;;;;;8.45;3.38;;;;;;;12.26;90.40;101479.75;4874492;29;20053;-65
2021/10/27 07:50:28;;;;;;;6.50;3.75;;;;;;;12.39;89.33;101479.00;4884622;29;20143;-67
2021/10/27 07:53:02;;;;;;;12.60;3.92;;;;;;;12.60;88.62;101482.28;4907742;29;20049;-67
2021/10/27 07:55:31;;;;;;;14.27;4.35;;;;;;;12.29;90.17;101484.84;4878119;29;20135;-66
2021/10/27 07:57:58;;;;;;;11.73;4.25;;;;;;;12.28;91.21;101486.63;4904855;29;20056;-66
2021/10/27 08:00:26;;;;;;;12.20;3.78;;;;;;;12.77;88.14;101480.53;4887748;29;20060;-65
2021/10/27 08:02:54;;;;;;;9.90;3.70;;;;;;;13.05;85.79;101482.50;4895649;29;20048;-66
2021/10/27 08:05:22;;;;;;;9.23;3.92;;;;;;;13.40;84.21;101493.78;4900180;29;20061;-66
2021/10/27 08:07:50;;;;;;;10.63;3.63;;;;;;;14.72;78.50;101493.88;4906795;29;20054;-65
2021/10/27 08:10:21;;;;;;;21.48;4.50;;;;;;;15.19;75.07;101499.69;4872277;29;20064;-66
2021/10/27 08:12:49;;;;;;;10.50;3.60;;;;;;;15.28;73.54;101500.06;4878593;29;20062;-66
2021/10/27 08:15:20;;;;;;;7.10;3.60;;;;;;;14.83;75.33;101497.56;4898282;29;20060;-66
2021/10/27 08:17:48;;;;;;;14.27;4.75;;;;;;;16.72;68.33;101493.84;4902760;29;20067;-65
2021/10/27 08:20:17;;;;;;;10.35;3.60;;;;;;;17.51;64.11;101497.00;4876131;29;20064;-67
2021/10/27 08:22:47;;;;;;;8.40;3.95;;;;;;;20.10;56.46;101494.13;4899153;29;20143;-66
2021/10/27 08:25:20;;;;;;;7.25;3.63;;;;;;;20.96;52.35;101486.66;4866966;29;20052;-67
2021/10/27 08:27:48;;;;;;;8.45;3.50;;;;;;;21.23;49.95;101481.50;4900348;29;20048;-67
2021/10/27 08:30:18;;;;;;;8.10;3.13;;;;;;;20.31;52.25;101483.44;4905629;29;20063;-66
2021/10/27 08:32:56;;;;;;;8.07;2.70;;;;;;;20.38;52.55;101489.09;4899789;29;20052;-66
2021/10/27 08:35:29;;;;;;;9.77;3.25;;;;;;;20.61;51.54;101489.78;4900966;29;20054;-65
2021/10/27 08:37:57;;;;;;;7.78;3.83;;;;;;;19.78;53.76;101493.34;4906128;29;20047;-67
2021/10/27 08:40:26;;;;;;;11.15;3.70;;;;;;;18.71;56.69;101495.75;4880965;29;20139;-66
2021/10/27 08:42:55;;;;;;;9.65;3.50;;;;;;;18.15;58.99;101492.19;4889366;29;20063;-66
2021/10/27 08:45:23;;;;;;;10.05;2.60;;;;;;;18.75;57.82;101498.19;4902631;29;20131;-68
2021/10/27 08:47:52;;;;;;;7.95;2.95;;;;;;;19.58;55.02;101497.63;4874770;29;20055;-67
2021/10/27 08:50:20;;;;;;;5.57;3.03;;;;;;;21.00;51.65;101493.44;4899922;29;20056;-66
2021/10/27 08:52:49;;;;;;;5.55;2.80;;;;;;;21.09;50.20;101497.97;4906826;29;20056;-67
2021/10/27 08:55:17;;;;;;;6.72;3.20;;;;;;;21.31;49.28;101490.69;4892548;29;20057;-65
2021/10/27 08:57:47;;;;;;;11.82;3.35;;;;;;;21.75;48.49;101497.38;4888990;29;20048;-66
2021/10/27 09:00:25;;;;;;;6.00;2.80;;;;;;;21.66;47.88;101501.75;4900732;29;20155;-66
2021/10/27 09:03:04;;;;;;;11.35;2.75;;;;;;;19.73;52.96;101502.59;4890194;29;20383;-66
2021/10/27 09:17:04;;;;;;;5.80;2.78;;;;;;;16.14;69.48;101517.31;4900835;29;20071;-66
2021/10/27 09:34:37;;;;;;;7.95;3.60;;;;;;;15.74;73.66;101528.91;4898170;29;20060;-66
2021/10/27 09:37:23;;;;;;;10.00;3.22;;;;;;;16.04;72.52;101529.53;4897117;29;20055;-66
2021/10/27 10:05:22;;;;;;;8.52;3.28;;;;;;;14.82;80.06;101548.91;4906038;29;20392;-67
2021/10/27 10:07:50;;;;;;;11.20;2.50;;;;;;;14.96;79.85;101553.34;4889685;29;20415;-67
2021/10/27 10:10:18;;;;;;;10.80;3.10;;;;;;;15.05;79.45;101557.22;4895862;29;20074;-66
2021/10/27 10:12:51;;;;;;;6.57;3.00;;;;;;;15.26;78.13;101560.28;4906892;29;20051;-66
2021/10/27 10:15:25;;;;;;;10.77;2.55;;;;;;;15.01;78.36;101558.34;4904642;29;20076;-68
2021/10/27 10:17:53;;;;;;;9.63;2.40;;;;;;;14.99;77.87;101558.44;4908670;29;20048;-67
2021/10/27 10:20:21;;;;;;;11.18;3.13;;;;;;;15.10;77.95;101563.94;4896607;29;20079;-67
2021/10/27 10:23:22;;;;;;;11.90;2.87;;;;;;;15.23;77.38;101560.50;4899924;29;20064;-67
2021/10/27 10:25:54;;;;;;;8.43;2.25;;;;;;;14.87;79.03;101561.88;4904270;29;20048;-65
2021/10/27 10:28:27;;;;;;;14.10;2.75;;;;;;;14.79;79.77;101559.69;4896461;29;20057;-66
2021/10/27 10:31:01;;;;;;;7.30;2.65;;;;;;;15.07;78.98;101560.63;4891016;29;20071;-66
2021/10/27 10:33:41;;;;;;;9.60;2.50;;;;;;;14.99;79.17;101560.22;4890511;29;20057;-65
2021/10/27 10:36:26;;;;;;;7.05;4.20;;;;;;;15.12;78.85;101562.03;4888749;29;20974;-66
2021/10/27 10:41:58;;;;;;;11.15;2.58;;;;;;;14.78;79.73;101559.78;4921481;29;20084;-67
2021/10/27 11:37:54;;;;;;;6.78;2.80;;;;;;;14.97;82.08;101560.34;4900697;29;20052;-67
2021/10/27 11:40:42;;;;;;;15.20;2.65;;;;;;;14.96;81.86;101545.38;4891814;29;20060;-66
2021/10/27 11:48:19;;;;;;;7.60;3.15;;;;;;;14.97;81.49;101547.09;4906542;29;20055;-66
2021/10/27 11:50:46;;;;;;;7.25;2.70;;;;;;;15.00;81.88;101538.94;4894441;29;20473;-67
2021/10/27 11:53:23;;;;;;;6.00;3.15;;;;;;;14.79;82.16;101534.97;4894581;29;20177;-66
2021/10/27 11:55:51;;;;;;;5.25;2.85;;;;;;;14.93;81.69;101541.13;4899904;29;20045;-67
2021/10/27 11:58:23;;;;;;;5.47;2.65;;;;;;;14.82;82.53;101533.00;4886736;29;20071;-67
2021/10/27 12:01:00;;;;;;;10.18;3.30;;;;;;;15.00;81.08;101536.28;4890315;29;20511;-66
2021/10/27 12:03:37;;;;;;;7.40;2.50;;;;;;;14.82;81.81;101540.09;4908796;29;20151;-68
2021/10/27 12:06:12;;;;;;;11.45;3.15;;;;;;;14.82;81.77;101537.44;4889709;29;20558;-67
2021/10/27 12:14:17;;;;;;;6.28;3.22;;;;;;;14.44;84.83;101527.34;4883949;29;20132;-67
2021/10/27 12:17:13;;;;;;;7.13;3.15;;;;;;;14.60;83.76;101535.25;4872269;29;20037;-67
2021/10/27 12:19:36;;;;;;;7.32;3.25;;;;;;;14.73;83.14;101524.78;4895353;29;20423;-67
2021/10/27 12:22:08;;;;;;;7.80;3.10;;;;;;;14.48;84.76;101528.91;4888744;29;20052;-65
2021/10/27 12:24:40;;;;;;;7.30;3.20;;;;;;;14.51;84.39;101518.13;4900807;29;20103;-67
2021/10/27 12:27:27;;;;;;;8.70;3.42;;;;;;;14.36;85.21;101517.25;4902498;29;20052;-65
2021/10/27 12:29:57;;;;;;;8.35;3.85;;;;;;;14.57;84.10;101512.44;4902698;29;20396;-67
2021/10/27 12:32:27;;;;;;;8.02;3.20;;;;;;;14.57;84.44;101514.25;4888291;29;20135;-67
2021/10/27 12:35:06;;;;;;;11.75;3.70;;;;;;;14.66;83.88;101509.22;4886981;29;20056;-67
2021/10/27 12:37:41;;;;;;;8.85;3.15;;;;;;;14.78;83.67;101506.78;4903177;29;20573;-66
2021/10/27 12:40:14;;;;;;;7.80;3.45;;;;;;;14.87;82.16;101509.69;4906359;29;20083;-66
2021/10/27 12:42:41;;;;;;;9.30;2.97;;;;;;;14.84;82.61;101514.34;4879335;29;20233;-67
2021/10/27 12:45:08;;;;;;;5.70;3.20;;;;;;;14.51;84.74;101504.03;4900853;23;20066;-72
2021/10/27 12:47:39;;;;;;;8.38;2.92;;;;;;;14.47;84.91;101505.13;4899314;29;20059;-71
2021/10/27 12:50:14;;;;;;;8.68;3.65;;;;;;;14.47;84.93;101503.34;4864475;29;20225;-72
2021/10/27 12:52:51;;;;;;;7.43;3.15;;;;;;;14.43;84.99;101505.31;4884642;29;20060;-72
2021/10/27 12:55:26;;;;;;;7.35;3.47;;;;;;;14.25;86.29;101505.56;4886559;29;20063;-73
2021/10/27 12:58:02;;;;;;;11.88;3.97;;;;;;;14.12;87.14;101502.81;4887488;29;20304;-72
2021/10/27 13:00:39;;;;;;;9.15;3.15;;;;;;;13.94;88.27;101502.94;4883135;29;20052;-71
2021/10/27 13:03:26;;;;;;;6.65;3.00;;;;;;;14.17;86.91;101506.03;4883450;29;20052;-72
2021/10/27 13:06:12;;;;;;;8.73;3.20;;;;;;;14.08;87.03;101503.94;4884365;29;20044;-73
2021/10/27 13:16:46;;;;;;;7.60;3.10;;;;;;;14.06;88.05;101517.28;4901437;29;20032;-72
2021/10/27 13:22:09;;;;;;;11.60;3.70;;;;;;;14.17;87.69;101516.63;4888157;29;20559;-72
2021/10/27 13:32:50;;;;;;;7.32;2.92;;;;;;;14.11;87.82;101514.34;4876677;29;20577;-72
2021/10/27 13:35:17;;;;;;;9.30;3.40;;;;;;;14.12;87.99;101503.66;4866347;29;20059;-71
2021/10/27 13:37:45;;;;;;;11.68;3.83;;;;;;;14.25;87.68;101495.84;4900502;29;20526;-73
2021/10/27 13:40:13;;;;;;;6.50;3.63;;;;;;;14.17;87.50;101500.72;4880702;29;20435;-71
2021/10/27 13:42:51;;;;;;;8.48;2.97;;;;;;;14.12;88.02;101495.72;4862640;29;20063;-72
2021/10/27 13:48:21;;;;;;;6.00;2.88;;;;;;;14.02;88.87;101502.50;4889448;29;20064;-74
2021/10/27 14:07:53;;;;;;;21.63;3.80;;;;;;;14.05;89.51;101496.16;4870439;29;20710;-74
2021/10/27 14:10:53;;;;;;;6.85;3.70;;;;;;;14.03;89.68;101492.78;4890205;29;20036;-74
2021/10/27 14:18:53;;;;;;;9.10;3.67;;;;;;;13.84;91.12;101495.66;4892944;29;20084;-74
2021/10/27 15:20:07;;;;;;;;;;;;;;;13.60;95.06;101498.78;4889072;29;20056;-74
2021/10/27 15:22:45;;;;;;;9.55;4.60;;;;;;;13.52;95.24;101493.09;4895053;29;19946;-73
2021/10/27 15:28:13;;;;;;;10.25;4.80;;;;;;;13.45;96.15;101497.00;4906842;29;20109;-75
2021/10/27 15:33:58;;;;;;;8.20;4.28;;;;;;;13.45;96.04;101512.03;4898801;29;20037;-74
2021/10/27 15:44:34;;;;;;;11.63;4.47;;;;;;;13.42;96.79;101515.72;4881992;29;20056;-76
2021/10/27 15:52:37;;;;;;;10.35;4.78;;;;;;;13.43;96.58;101514.78;4905388;29;20044;-74
2021/10/27 15:55:06;;;;;;;10.13;5.18;;;;;;;13.30;97.38;101511.13;4885608;29;20041;-74
2021/10/27 15:57:33;;;;;;;6.80;4.80;;;;;;;13.39;96.68;101514.09;4879285;29;20085;-75
2021/10/27 16:00:00;;;;;;;11.48;5.13;;;;;;;13.37;96.74;101510.69;4873620;29;20049;-72
2021/10/27 16:02:28;;;;;;;12.30;5.55;;;;;;;13.33;97.22;101505.66;4915927;29;20056;-76
2021/10/27 16:04:57;;;;;;;12.18;5.78;;;;;;;13.29;97.82;101514.69;4901430;29;20116;-74
2021/10/27 16:07:26;;;;;;;15.20;6.43;;;;;;;13.28;98.24;101510.31;4904231;29;20112;-76